Time;durP1;ratioP1;P1;durP2;ratioP2;P2;SDS_P1;SDS_P2;PMS_P1;PMS_P2;Temp;Humidity;BMP_temperature;BMP_pressure;BME280_temperature;BME280_humidity;BME280_pressure;Samples;Min_cycle;Max_cycle;Signal;HPM_P1;HPM_P2
2022/09/13 00:00:31;;;;;;;;;;;23.00;99.90;;;;;;5079333;28;19928;-81
2022/09/13 00:02:57;;;;;;;;;;;23.10;99.90;;;;;;5080726;28;19916;-81
2022/09/13 00:05:23;;;;;;;;;;;23.20;99.90;;;;;;5083765;28;19960;-80
2022/09/13 00:07:48;;;;;;;;;;;23.20;99.90;;;;;;5080635;28;19916;-81
2022/09/13 00:10:14;;;;;;;;;;;23.10;99.90;;;;;;5082328;28;20284;-81
2022/09/13 00:12:40;;;;;;;;;;;23.00;99.90;;;;;;5081825;28;19930;-80
2022/09/13 00:15:06;;;;;;;;;;;23.10;99.90;;;;;;5080647;28;19927;-81
2022/09/13 00:17:31;;;;;;;;;;;23.20;99.90;;;;;;5082099;28;19916;-80
2022/09/13 00:19:57;;;;;;;;;;;23.10;99.90;;;;;;5082448;28;19924;-81
2022/09/13 00:22:22;;;;;;;;;;;23.10;99.90;;;;;;5083298;28;19916;-81
2022/09/13 00:24:48;;;;;;;;;;;23.10;99.90;;;;;;5082494;28;19928;-81
2022/09/13 00:27:13;;;;;;;;;;;23.20;99.90;;;;;;5081535;28;19960;-81
2022/09/13 00:29:39;;;;;;;;;;;23.10;99.90;;;;;;5082252;28;19916;-81
2022/09/13 00:32:05;;;;;;;;;;;23.00;99.90;;;;;;5083300;28;21117;-80
2022/09/13 00:34:30;;;;;;;;;;;23.20;99.90;;;;;;5082685;28;19955;-81
2022/09/13 00:36:56;;;;;;;;;;;23.20;99.90;;;;;;5082055;28;19927;-81
2022/09/13 00:39:21;;;;;;;;;;;23.30;99.90;;;;;;5082209;28;19923;-80
2022/09/13 00:41:47;;;;;;;;;;;23.40;99.90;;;;;;5080368;28;20023;-81
2022/09/13 00:44:31;;;;;;;;;;;23.40;99.90;;;;;;5081782;28;19927;-81
2022/09/13 00:46:57;;;;;;;;;;;23.40;99.90;;;;;;5081253;28;19969;-80
2022/09/13 00:49:22;;;;;;;;;;;23.40;99.90;;;;;;5082856;28;20277;-81
2022/09/13 00:51:51;;;;;;;;;;;23.30;99.90;;;;;;5082380;28;20458;-81
2022/09/13 00:54:17;;;;;;;;;;;23.40;99.90;;;;;;5081191;28;20439;-81
2022/09/13 00:56:45;;;;;;;;;;;23.40;99.90;;;;;;5103514;27;19920;-81
2022/09/13 00:59:17;;;;;;;;;;;23.20;99.90;;;;;;5081587;28;19931;-81
2022/09/13 01:01:47;;;;;;;;;;;23.30;99.90;;;;;;5078847;28;20339;-81
2022/09/13 01:04:14;;;;;;;;;;;23.20;99.90;;;;;;5081986;28;19916;-80
2022/09/13 01:06:41;;;;;;;;;;;23.10;99.90;;;;;;5081093;28;20279;-82
2022/09/13 01:09:09;;;;;;;;;;;23.10;99.90;;;;;;5079971;28;19916;-80
2022/09/13 01:11:41;;;;;;;;;;;23.00;99.90;;;;;;5081073;28;19916;-80
2022/09/13 01:14:07;;;;;;;;;;;22.80;99.90;;;;;;5081243;28;19916;-80
2022/09/13 01:16:33;;;;;;;;;;;22.60;99.90;;;;;;5079780;28;19916;-81
2022/09/13 01:18:59;;;;;;;;;;;22.50;99.90;;;;;;5078533;28;19912;-80
2022/09/13 01:21:43;;;;;;;;;;;22.40;99.90;;;;;;5081699;28;20272;-81
2022/09/13 01:24:27;;;;;;;;;;;22.40;99.90;;;;;;5082280;28;19919;-81
2022/09/13 01:27:11;;;;;;;;;;;22.30;99.90;;;;;;5080401;28;19920;-81
2022/09/13 01:29:43;;;;;;;;;;;22.30;99.90;;;;;;5080992;28;20689;-81
2022/09/13 01:32:11;;;;;;;;;;;22.20;99.90;;;;;;5080255;28;19916;-81
2022/09/13 01:34:36;;;;;;;;;;;22.20;99.90;;;;;;5104157;27;19920;-81
2022/09/13 01:37:05;;;;;;;;;;;22.30;99.90;;;;;;5083445;28;19923;-80
2022/09/13 01:39:49;;;;;;;;;;;22.20;99.90;;;;;;5080220;28;19916;-81
2022/09/13 01:42:25;;;;;;;;;;;22.10;99.90;;;;;;5079939;28;19920;-80
2022/09/13 01:45:12;;;;;;;;;;;22.10;99.90;;;;;;5104921;27;19971;-81
2022/09/13 01:48:00;;;;;;;;;;;22.00;99.90;;;;;;5074814;28;19920;-81
2022/09/13 01:50:41;;;;;;;;;;;22.10;99.90;;;;;;5103991;27;20483;-81
2022/09/13 01:53:25;;;;;;;;;;;22.10;99.90;;;;;;5080992;28;19916;-82
2022/09/13 01:55:57;;;;;;;;;;;22.10;99.90;;;;;;5079674;28;20662;-80
2022/09/13 01:58:28;;;;;;;;;;;22.10;99.90;;;;;;5080071;28;19968;-81
2022/09/13 02:01:03;;;;;;;;;;;22.10;99.90;;;;;;5077453;28;20300;-81
2022/09/13 02:03:33;;;;;;;;;;;22.10;99.90;;;;;;5080940;28;20354;-81
2022/09/13 02:06:02;;;;;;;;;;;22.20;99.90;;;;;;5081923;28;19924;-81
2022/09/13 02:08:33;;;;;;;;;;;22.20;99.90;;;;;;5080007;28;19948;-81
2022/09/13 02:11:08;;;;;;;;;;;22.10;99.90;;;;;;5101251;28;19944;-81
2022/09/13 02:13:39;;;;;;;;;;;22.20;99.90;;;;;;5079492;28;19916;-80
2022/09/13 02:16:07;;;;;;;;;;;22.10;99.90;;;;;;5080584;28;20456;-81
2022/09/13 02:18:37;;;;;;;;;;;22.10;99.90;;;;;;5080109;28;19916;-80
2022/09/13 02:21:18;;;;;;;;;;;22.20;99.90;;;;;;5080991;28;19923;-81
2022/09/13 02:23:47;;;;;;;;;;;22.10;99.90;;;;;;5108832;28;19912;-80
2022/09/13 02:26:14;;;;;;;;;;;22.10;99.90;;;;;;5080313;28;20000;-81
2022/09/13 02:28:46;;;;;;;;;;;22.10;99.90;;;;;;5080517;28;19931;-81
2022/09/13 02:31:13;;;;;;;;;;;22.10;99.90;;;;;;5080362;28;19916;-81
2022/09/13 02:33:42;;;;;;;;;;;22.20;99.90;;;;;;5083208;28;19920;-80
2022/09/13 02:36:11;;;;;;;;;;;22.20;99.90;;;;;;5084209;28;19923;-81
2022/09/13 02:38:40;;;;;;;;;;;22.30;99.90;;;;;;5084171;28;20414;-80
2022/09/13 02:41:13;;;;;;;;;;;22.30;99.90;;;;;;5084652;28;20297;-81
2022/09/13 02:43:42;;;;;;;;;;;22.30;99.90;;;;;;5081124;28;19920;-80
2022/09/13 02:46:44;;;;;;;;;;;22.30;99.90;;;;;;5082566;28;19928;-80
2022/09/13 02:49:12;;;;;;;;;;;22.20;99.90;;;;;;5053155;28;20400;-80
2022/09/13 02:51:40;;;;;;;;;;;22.20;99.90;;;;;;5052862;28;19916;-81
2022/09/13 02:54:24;;;;;;;;;;;22.20;99.90;;;;;;5035843;28;19916;-80
2022/09/13 02:56:52;;;;;;;;;;;22.30;99.90;;;;;;5050927;28;19917;-80
2022/09/13 02:59:19;;;;;;;;;;;22.30;99.90;;;;;;5044898;28;19927;-82
2022/09/13 03:01:49;;;;;;;;;;;22.20;99.90;;;;;;5046308;28;19943;-80
2022/09/13 03:04:15;;;;;;;;;;;22.20;99.90;;;;;;5049236;28;20011;-81
2022/09/13 03:06:41;;;;;;;;;;;22.20;99.90;;;;;;5033788;28;20350;-80
2022/09/13 03:09:07;;;;;;;;;;;22.20;99.90;;;;;;5050376;28;19917;-81
2022/09/13 03:11:51;;;;;;;;;;;22.20;99.90;;;;;;5049616;28;19974;-81
2022/09/13 03:14:26;;;;;;;;;;;22.20;99.90;;;;;;5050752;28;19931;-81
2022/09/13 03:16:51;;;;;;;;;;;22.20;99.90;;;;;;5048863;28;19967;-81
2022/09/13 03:19:35;;;;;;;;;;;22.20;99.90;;;;;;5050011;28;20007;-80
2022/09/13 03:22:19;;;;;;;;;;;22.30;99.90;;;;;;5052292;28;20055;-81
2022/09/13 03:24:51;;;;;;;;;;;22.20;99.90;;;;;;5077138;28;19920;-81
2022/09/13 03:27:23;;;;;;;;;;;22.30;99.90;;;;;;5082607;28;19925;-80
2022/09/13 03:29:57;;;;;;;;;;;22.20;99.90;;;;;;5082645;28;19916;-81
2022/09/13 03:32:23;;;;;;;;;;;22.10;99.90;;;;;;5082108;28;19951;-82
2022/09/13 03:35:06;;;;;;;;;;;22.10;99.90;;;;;;5081619;28;19924;-81
2022/09/13 03:37:45;;;;;;;;;;;22.10;99.90;;;;;;5083550;28;19915;-82
2022/09/13 03:40:15;;;;;;;;;;;22.10;99.90;;;;;;5083774;28;19956;-81
2022/09/13 03:42:44;;;;;;;;;;;22.10;99.90;;;;;;5082266;28;19970;-81
2022/09/13 03:45:10;;;;;;;;;;;22.10;99.90;;;;;;5082202;28;19977;-81
2022/09/13 03:47:37;;;;;;;;;;;22.10;99.90;;;;;;5081550;28;19922;-81
2022/09/13 03:50:05;;;;;;;;;;;22.20;99.90;;;;;;5082515;28;19959;-81
2022/09/13 03:52:30;;;;;;;;;;;22.20;99.90;;;;;;5083838;28;19935;-81
2022/09/13 03:54:56;;;;;;;;;;;22.30;99.90;;;;;;5083010;28;19915;-81
2022/09/13 03:57:22;;;;;;;;;;;22.30;99.90;;;;;;5082641;28;19920;-81
2022/09/13 03:59:49;;;;;;;;;;;22.30;99.90;;;;;;5082207;28;19928;-81
2022/09/13 04:02:15;;;;;;;;;;;22.30;99.90;;;;;;5079106;28;19924;-81
2022/09/13 04:04:41;;;;;;;;;;;22.40;99.90;;;;;;5082064;28;20034;-80
2022/09/13 04:07:08;;;;;;;;;;;22.40;99.90;;;;;;5080343;28;19927;-80
2022/09/13 04:09:34;;;;;;;;;;;22.40;99.90;;;;;;5081073;28;19927;-81
2022/09/13 04:12:00;;;;;;;;;;;22.40;99.90;;;;;;5082488;28;20586;-80
2022/09/13 04:14:25;;;;;;;;;;;22.40;99.90;;;;;;5082013;28;19965;-81
2022/09/13 04:16:55;;;;;;;;;;;22.40;99.90;;;;;;5083044;28;19916;-81
2022/09/13 04:19:21;;;;;;;;;;;22.40;99.90;;;;;;5081055;28;20327;-80
2022/09/13 04:21:48;;;;;;;;;;;22.40;99.90;;;;;;5083385;28;19941;-81
2022/09/13 04:24:14;;;;;;;;;;;22.40;99.90;;;;;;5082891;28;20022;-81
2022/09/13 04:26:39;;;;;;;;;;;22.40;99.90;;;;;;5081882;28;19920;-81
2022/09/13 04:29:05;;;;;;;;;;;22.40;99.90;;;;;;5081540;28;20381;-81
2022/09/13 04:31:30;;;;;;;;;;;22.40;99.90;;;;;;5080613;28;20380;-80
2022/09/13 04:33:57;;;;;;;;;;;22.40;99.90;;;;;;5081896;28;20481;-81
2022/09/13 04:36:23;;;;;;;;;;;22.40;99.90;;;;;;5081990;28;20431;-80
2022/09/13 04:38:49;;;;;;;;;;;22.40;99.90;;;;;;5082165;28;19951;-81
2022/09/13 04:41:16;;;;;;;;;;;22.30;99.90;;;;;;5081853;28;19923;-81
2022/09/13 04:43:41;;;;;;;;;;;22.30;99.90;;;;;;5080834;28;19920;-80
2022/09/13 04:46:07;;;;;;;;;;;22.20;99.90;;;;;;5078977;28;19981;-80
2022/09/13 04:48:33;;;;;;;;;;;22.20;99.90;;;;;;5084209;28;19978;-80
2022/09/13 04:51:03;;;;;;;;;;;22.20;99.90;;;;;;5084531;28;20491;-80
2022/09/13 04:53:29;;;;;;;;;;;22.30;99.90;;;;;;5084210;28;19920;-81
2022/09/13 04:56:04;;;;;;;;;;;22.30;99.90;;;;;;5083365;28;20683;-81
2022/09/13 04:58:31;;;;;;;;;;;22.30;99.90;;;;;;5084258;28;19957;-81
2022/09/13 05:01:00;;;;;;;;;;;22.30;99.90;;;;;;5073217;28;19924;-81
2022/09/13 05:03:28;;;;;;;;;;;22.40;99.90;;;;;;5068220;28;19916;-81
2022/09/13 05:05:53;;;;;;;;;;;22.40;99.90;;;;;;5067312;28;19924;-81
2022/09/13 05:08:19;;;;;;;;;;;22.40;99.90;;;;;;5065120;28;20308;-80
2022/09/13 05:10:45;;;;;;;;;;;22.40;99.90;;;;;;5066855;28;19913;-82
2022/09/13 05:13:11;;;;;;;;;;;22.40;99.90;;;;;;5063192;28;20431;-80
2022/09/13 05:15:36;;;;;;;;;;;22.50;99.90;;;;;;5096438;27;19920;-81
2022/09/13 05:18:02;;;;;;;;;;;22.50;99.90;;;;;;5075398;28;19913;-81
2022/09/13 05:20:27;;;;;;;;;;;22.50;99.90;;;;;;5062967;28;19948;-81
2022/09/13 05:22:54;;;;;;;;;;;22.50;99.90;;;;;;5063143;28;19916;-81
2022/09/13 05:25:20;;;;;;;;;;;22.50;99.90;;;;;;5067296;28;19993;-81
2022/09/13 05:27:45;;;;;;;;;;;22.50;99.90;;;;;;5096783;27;20400;-81
2022/09/13 05:30:11;;;;;;;;;;;22.60;99.90;;;;;;5067412;28;19927;-81
2022/09/13 05:32:36;;;;;;;;;;;22.50;99.90;;;;;;5059261;28;19916;-81
2022/09/13 05:35:02;;;;;;;;;;;22.50;99.90;;;;;;5063357;28;19979;-80
2022/09/13 05:37:28;;;;;;;;;;;22.50;99.90;;;;;;5063041;28;20011;-81
2022/09/13 05:39:53;;;;;;;;;;;22.50;99.90;;;;;;5081727;28;19916;-80
2022/09/13 05:42:18;;;;;;;;;;;22.50;99.90;;;;;;5076054;28;19916;-80
2022/09/13 05:44:44;;;;;;;;;;;22.40;99.90;;;;;;5082968;28;19920;-82
2022/09/13 05:47:12;;;;;;;;;;;22.40;99.90;;;;;;5083986;28;20027;-81
2022/09/13 05:49:38;;;;;;;;;;;22.50;99.90;;;;;;5083937;28;19912;-80
2022/09/13 05:52:03;;;;;;;;;;;22.60;99.90;;;;;;5083838;28;19932;-80
2022/09/13 05:54:29;;;;;;;;;;;22.70;99.90;;;;;;5083116;28;19912;-81
2022/09/13 05:56:56;;;;;;;;;;;22.70;99.90;;;;;;5083884;28;20337;-80
2022/09/13 05:59:21;;;;;;;;;;;22.70;99.90;;;;;;5083813;28;20296;-80
2022/09/13 06:01:47;;;;;;;;;;;22.80;99.90;;;;;;5053259;28;19923;-82
2022/09/13 06:04:13;;;;;;;;;;;22.80;99.90;;;;;;5043287;28;20703;-81
2022/09/13 06:06:39;;;;;;;;;;;22.90;99.90;;;;;;5046341;28;19913;-80
2022/09/13 06:09:07;;;;;;;;;;;22.90;99.90;;;;;;5064872;28;19916;-79
2022/09/13 06:11:33;;;;;;;;;;;23.00;99.90;;;;;;5070683;28;19912;-81
2022/09/13 06:13:58;;;;;;;;;;;23.10;99.90;;;;;;5068712;28;19920;-82
2022/09/13 06:16:24;;;;;;;;;;;23.30;99.90;;;;;;5082936;28;20412;-82
2022/09/13 06:18:49;;;;;;;;;;;23.60;99.90;;;;;;5087527;28;19924;-82
2022/09/13 06:21:20;;;;;;;;;;;24.00;99.90;;;;;;5088800;28;20363;-82
2022/09/13 06:23:48;;;;;;;;;;;23.70;99.90;;;;;;5089925;28;19912;-82
2022/09/13 06:26:15;;;;;;;;;;;23.60;99.90;;;;;;5089916;28;20377;-81
2022/09/13 06:28:41;;;;;;;;;;;23.70;99.90;;;;;;5090201;28;19923;-82
2022/09/13 06:31:07;;;;;;;;;;;24.00;99.90;;;;;;5088414;28;19923;-82
2022/09/13 06:33:33;;;;;;;;;;;24.10;99.90;;;;;;5088759;28;20003;-82
2022/09/13 06:36:01;;;;;;;;;;;24.80;99.90;;;;;;5086683;28;20518;-83
2022/09/13 06:38:26;;;;;;;;;;;24.80;99.90;;;;;;5089757;28;19912;-81
2022/09/13 06:41:05;;;;;;;;;;;24.60;99.90;;;;;;5090403;28;20289;-82
2022/09/13 06:43:31;;;;;;;;;;;24.30;99.90;;;;;;5081417;28;20300;-81
2022/09/13 06:46:23;;;;;;;;;;;23.80;99.90;;;;;;5088655;28;20037;-81
2022/09/13 06:48:49;;;;;;;;;;;23.70;99.90;;;;;;5089198;27;19919;-81
2022/09/13 06:51:16;;;;;;;;;;;23.60;99.90;;;;;;5089868;28;20577;-82
2022/09/13 06:53:42;;;;;;;;;;;23.70;99.90;;;;;;5089455;28;19912;-82
2022/09/13 06:56:16;;;;;;;;;;;23.70;99.90;;;;;;5089934;28;19934;-81
2022/09/13 06:58:42;;;;;;;;;;;23.70;99.90;;;;;;5090251;28;19955;-82
2022/09/13 07:01:10;;;;;;;;;;;23.70;99.90;;;;;;5077202;28;19924;-82
2022/09/13 07:03:36;;;;;;;;;;;23.60;99.90;;;;;;5069691;28;19913;-82
2022/09/13 07:06:12;;;;;;;;;;;23.60;99.90;;;;;;5069763;28;19960;-81
2022/09/13 07:08:38;;;;;;;;;;;23.70;99.90;;;;;;5068613;28;19913;-82
2022/09/13 07:11:04;;;;;;;;;;;23.90;99.90;;;;;;5069526;28;19915;-81
2022/09/13 07:13:29;;;;;;;;;;;24.10;99.90;;;;;;5080745;28;20573;-81
2022/09/13 07:15:55;;;;;;;;;;;24.30;99.90;;;;;;5089598;28;20634;-81
2022/09/13 07:18:20;;;;;;;;;;;24.30;99.90;;;;;;5085725;28;19916;-82
2022/09/13 07:20:46;;;;;;;;;;;24.30;99.90;;;;;;5084317;28;19916;-81
2022/09/13 07:23:11;;;;;;;;;;;24.40;99.90;;;;;;5085191;28;20058;-81
2022/09/13 07:25:37;;;;;;;;;;;24.30;99.90;;;;;;5086335;28;19988;-81
2022/09/13 07:28:02;;;;;;;;;;;24.30;99.90;;;;;;5086985;28;19912;-82
2022/09/13 07:30:28;;;;;;;;;;;24.20;99.90;;;;;;5086524;28;19924;-82
2022/09/13 07:32:53;;;;;;;;;;;24.30;99.90;;;;;;5086877;28;19912;-82
2022/09/13 07:35:19;;;;;;;;;;;24.30;99.90;;;;;;5083870;28;19924;-82
2022/09/13 07:37:45;;;;;;;;;;;24.30;99.90;;;;;;5085676;28;20321;-81
2022/09/13 07:40:11;;;;;;;;;;;24.40;99.90;;;;;;5085987;28;19972;-81
2022/09/13 07:42:36;;;;;;;;;;;24.60;99.90;;;;;;5075585;28;19925;-83
2022/09/13 07:45:02;;;;;;;;;;;24.60;99.90;;;;;;5085455;28;19924;-82
2022/09/13 07:47:28;;;;;;;;;;;24.70;99.90;;;;;;5079200;28;20428;-82
2022/09/13 07:49:53;;;;;;;;;;;24.70;99.90;;;;;;5064413;28;20635;-82
2022/09/13 07:52:19;;;;;;;;;;;24.70;99.90;;;;;;5066015;28;20008;-82
2022/09/13 07:54:45;;;;;;;;;;;24.80;99.90;;;;;;5064555;28;19981;-82
2022/09/13 07:57:11;;;;;;;;;;;24.90;99.90;;;;;;5077810;28;19916;-83
2022/09/13 07:59:37;;;;;;;;;;;25.00;99.90;;;;;;5086032;28;19931;-83
2022/09/13 08:02:03;;;;;;;;;;;24.90;99.90;;;;;;5076604;28;20801;-82
2022/09/13 08:04:28;;;;;;;;;;;25.00;99.90;;;;;;5085641;28;19909;-81
2022/09/13 08:06:54;;;;;;;;;;;25.20;99.90;;;;;;5081292;28;20411;-82
2022/09/13 08:09:20;;;;;;;;;;;26.00;99.90;;;;;;5081398;28;19970;-82
2022/09/13 08:11:47;;;;;;;;;;;27.00;99.90;;;;;;5085607;28;20274;-82
2022/09/13 08:14:14;;;;;;;;;;;27.10;99.90;;;;;;5083705;28;19920;-86
2022/09/13 08:16:39;;;;;;;;;;;26.50;99.90;;;;;;5067567;28;19986;-82
2022/09/13 08:19:06;;;;;;;;;;;26.60;99.90;;;;;;5066570;28;19916;-84
2022/09/13 08:21:36;;;;;;;;;;;26.90;99.90;;;;;;5065186;28;19913;-84
2022/09/13 08:24:02;;;;;;;;;;;27.40;99.90;;;;;;5065589;28;19948;-84
2022/09/13 08:26:28;;;;;;;;;;;27.80;99.90;;;;;;5064055;28;19927;-84
2022/09/13 08:28:58;;;;;;;;;;;28.00;99.90;;;;;;5065110;28;20659;-84
2022/09/13 08:31:26;;;;;;;;;;;28.60;99.90;;;;;;5063985;28;19909;-84
2022/09/13 08:33:52;;;;;;;;;;;27.70;99.90;;;;;;5064489;28;20475;-84
2022/09/13 08:36:18;;;;;;;;;;;26.90;99.90;;;;;;5064938;28;19913;-85
2022/09/13 08:38:48;;;;;;;;;;;26.30;99.90;;;;;;5065017;28;19919;-84
2022/09/13 08:41:31;;;;;;;;;;;26.20;99.90;;;;;;5064520;28;19916;-84
2022/09/13 08:44:12;;;;;;;;;;;26.10;99.90;;;;;;5077020;28;20270;-84
2022/09/13 08:46:43;;;;;;;;;;;26.10;99.90;;;;;;5076680;28;19967;-84
2022/09/13 08:49:23;;;;;;;;;;;26.40;99.90;;;;;;5044246;28;19909;-83
2022/09/13 08:51:53;;;;;;;;;;;26.90;99.90;;;;;;5044569;28;20480;-84
2022/09/13 08:54:19;;;;;;;;;;;27.00;99.90;;;;;;5043383;28;19935;-84
2022/09/13 08:56:58;;;;;;;;;;;26.80;99.90;;;;;;5044887;28;19956;-84
2022/09/13 08:59:45;;;;;;;;;;;26.70;99.90;;;;;;5044249;28;19931;-84
2022/09/13 09:02:29;;;;;;;;;;;26.40;99.90;;;;;;5062850;28;19917;-83
2022/09/13 09:05:13;;;;;;;;;;;26.80;99.90;;;;;;5064130;28;20381;-84
2022/09/13 09:07:41;;;;;;;;;;;27.40;99.90;;;;;;5064090;28;19978;-84
2022/09/13 09:10:13;;;;;;;;;;;28.20;99.90;;;;;;5063711;28;20306;-84
2022/09/13 09:12:51;;;;;;;;;;;28.00;99.90;;;;;;5062594;28;19919;-83
2022/09/13 09:15:20;;;;;;;;;;;27.90;99.90;;;;;;5064251;28;19913;-84
2022/09/13 09:17:52;;;;;;;;;;;28.00;99.90;;;;;;5064075;28;19913;-84
2022/09/13 09:20:18;;;;;;;;;;;27.90;99.90;;;;;;5064298;28;19917;-84
2022/09/13 09:22:44;;;;;;;;;;;27.90;99.90;;;;;;5064408;28;20695;-84
2022/09/13 09:25:10;;;;;;;;;;;27.80;99.90;;;;;;5062083;28;19924;-85
2022/09/13 09:27:36;;;;;;;;;;;27.70;99.40;;;;;;5063853;28;19958;-83
2022/09/13 09:30:02;;;;;;;;;;;28.00;99.40;;;;;;5063847;28;19912;-84
2022/09/13 09:32:46;;;;;;;;;;;28.00;98.80;;;;;;5063424;28;19920;-83
2022/09/13 09:35:20;;;;;;;;;;;29.00;98.00;;;;;;5063627;28;20402;-84
2022/09/13 09:37:56;;;;;;;;;;;28.90;97.40;;;;;;5063681;28;20309;-84
2022/09/13 09:40:22;;;;;;;;;;;28.60;98.40;;;;;;5062191;28;19986;-84
2022/09/13 09:42:48;;;;;;;;;;;28.80;97.60;;;;;;5063192;28;20411;-85
2022/09/13 09:45:25;;;;;;;;;;;28.90;97.20;;;;;;5063822;28;19920;-84
2022/09/13 09:47:50;;;;;;;;;;;28.40;97.20;;;;;;5063274;28;19914;-84
2022/09/13 09:50:18;;;;;;;;;;;28.40;97.60;;;;;;5063730;28;19919;-83
2022/09/13 09:52:50;;;;;;;;;;;28.60;97.30;;;;;;5063760;28;19913;-83
2022/09/13 09:55:16;;;;;;;;;;;29.20;96.40;;;;;;5063335;28;19913;-83
2022/09/13 09:58:10;;;;;;;;;;;29.10;95.70;;;;;;5063728;28;19924;-84
2022/09/13 10:00:37;;;;;;;;;;;28.80;96.10;;;;;;5059389;28;19924;-84
2022/09/13 10:03:04;;;;;;;;;;;29.00;95.80;;;;;;5063591;28;20488;-83
2022/09/13 10:05:34;;;;;;;;;;;29.00;95.40;;;;;;5063359;28;19920;-84
2022/09/13 10:07:59;;;;;;;;;;;29.10;95.00;;;;;;5063120;28;19912;-84
2022/09/13 10:10:33;;;;;;;;;;;29.30;94.20;;;;;;5063473;28;19912;-85
2022/09/13 10:12:59;;;;;;;;;;;29.20;94.90;;;;;;5063328;28;19912;-84
2022/09/13 10:15:28;;;;;;;;;;;29.00;93.90;;;;;;5062870;28;19920;-83
2022/09/13 10:18:04;;;;;;;;;;;29.10;93.90;;;;;;5063103;28;19913;-84
2022/09/13 10:20:30;;;;;;;;;;;29.20;94.10;;;;;;5061834;28;19916;-84
2022/09/13 10:23:10;;;;;;;;;;;29.30;93.50;;;;;;5063509;28;19927;-84
2022/09/13 10:25:36;;;;;;;;;;;29.30;93.30;;;;;;5063701;28;19920;-84
2022/09/13 10:28:03;;;;;;;;;;;29.20;93.50;;;;;;5061675;28;19912;-85
2022/09/13 10:30:44;;;;;;;;;;;29.00;93.60;;;;;;5063098;28;19912;-84
2022/09/13 10:33:29;;;;;;;;;;;29.20;93.60;;;;;;5062691;28;19924;-84
2022/09/13 10:35:56;;;;;;;;;;;29.50;93.20;;;;;;5062940;28;19913;-83
2022/09/13 10:38:25;;;;;;;;;;;29.50;93.20;;;;;;5063109;28;19913;-83
2022/09/13 10:40:50;;;;;;;;;;;29.20;92.20;;;;;;5061559;28;20293;-84
2022/09/13 10:43:18;;;;;;;;;;;29.40;92.50;;;;;;5063533;28;19913;-84
2022/09/13 10:45:47;;;;;;;;;;;29.90;92.30;;;;;;5062842;28;19924;-85
2022/09/13 10:48:14;;;;;;;;;;;30.00;92.00;;;;;;5061577;28;19913;-84
2022/09/13 10:50:40;;;;;;;;;;;29.70;91.10;;;;;;5063157;28;20304;-84
2022/09/13 10:53:38;;;;;;;;;;;29.40;91.50;;;;;;5063654;28;19913;-84
2022/09/13 10:56:04;;;;;;;;;;;29.40;91.50;;;;;;5024241;28;19913;-84
2022/09/13 10:58:30;;;;;;;;;;;29.30;91.50;;;;;;5024250;28;20009;-84
2022/09/13 11:01:02;;;;;;;;;;;29.00;91.50;;;;;;5023400;28;20019;-83
2022/09/13 11:03:48;;;;;;;;;;;29.00;91.70;;;;;;5024253;28;20378;-84
2022/09/13 11:06:13;;;;;;;;;;;29.00;92.00;;;;;;5024292;28;20394;-83
2022/09/13 11:08:57;;;;;;;;;;;29.00;91.70;;;;;;5024023;28;19913;-83
2022/09/13 11:11:45;;;;;;;;;;;28.90;91.40;;;;;;5024076;28;20465;-84
2022/09/13 11:14:31;;;;;;;;;;;28.70;91.60;;;;;;5023787;28;20361;-85
2022/09/13 11:16:56;;;;;;;;;;;28.70;91.50;;;;;;5024000;28;19913;-84
2022/09/13 11:19:40;;;;;;;;;;;28.80;91.50;;;;;;5023816;28;19919;-84
2022/09/13 11:22:06;;;;;;;;;;;28.90;91.80;;;;;;5023437;28;19913;-84
2022/09/13 11:24:34;;;;;;;;;;;29.10;91.80;;;;;;5023531;28;19967;-85
2022/09/13 11:27:00;;;;;;;;;;;29.30;91.30;;;;;;5023585;28;20370;-84
2022/09/13 11:29:40;;;;;;;;;;;29.50;91.40;;;;;;5023531;28;20353;-84
2022/09/13 11:32:26;;;;;;;;;;;29.60;90.60;;;;;;5051329;28;20010;-84
2022/09/13 11:34:55;;;;;;;;;;;29.70;90.70;;;;;;5066349;28;20415;-85
2022/09/13 11:37:41;;;;;;;;;;;29.70;90.20;;;;;;5066398;28;19952;-84
2022/09/13 11:40:25;;;;;;;;;;;29.80;89.20;;;;;;5066134;28;19923;-85
2022/09/13 11:43:11;;;;;;;;;;;30.10;88.80;;;;;;5065780;28;19912;-84
2022/09/13 11:45:37;;;;;;;;;;;30.50;89.30;;;;;;5098415;28;20476;-84
2022/09/13 11:48:02;;;;;;;;;;;30.50;86.50;;;;;;5066591;28;19912;-85
2022/09/13 11:50:33;;;;;;;;;;;30.10;88.10;;;;;;5065972;28;19913;-84
2022/09/13 11:53:07;;;;;;;;;;;29.90;89.40;;;;;;5065941;28;19916;-83
2022/09/13 11:55:36;;;;;;;;;;;29.90;88.60;;;;;;5065973;28;19913;-84
2022/09/13 11:58:04;;;;;;;;;;;30.00;88.50;;;;;;5065400;28;20428;-84
2022/09/13 12:00:32;;;;;;;;;;;30.10;87.60;;;;;;5064763;28;20061;-84
2022/09/13 12:03:00;;;;;;;;;;;29.90;88.30;;;;;;5065671;28;19922;-85
2022/09/13 12:05:27;;;;;;;;;;;29.90;88.40;;;;;;5065956;28;19986;-83
2022/09/13 12:08:01;;;;;;;;;;;29.70;88.90;;;;;;5063829;28;20464;-84
2022/09/13 12:10:46;;;;;;;;;;;29.60;89.10;;;;;;5065506;28;19913;-84
2022/09/13 12:13:15;;;;;;;;;;;29.40;89.60;;;;;;5065142;28;19912;-84
2022/09/13 12:15:42;;;;;;;;;;;29.10;90.70;;;;;;5065360;28;19913;-85
2022/09/13 12:18:12;;;;;;;;;;;29.30;90.40;;;;;;5065321;28;19923;-84
2022/09/13 12:20:43;;;;;;;;;;;29.30;90.20;;;;;;5065294;28;19918;-84
2022/09/13 12:23:13;;;;;;;;;;;29.20;90.40;;;;;;5065439;28;19955;-84
2022/09/13 12:25:44;;;;;;;;;;;29.10;90.80;;;;;;5063155;28;19974;-84
2022/09/13 12:28:26;;;;;;;;;;;29.10;89.70;;;;;;5063808;28;20468;-85
2022/09/13 12:30:56;;;;;;;;;;;29.10;89.00;;;;;;5061566;28;19962;-83
2022/09/13 12:33:22;;;;;;;;;;;29.10;89.10;;;;;;5064315;28;20389;-83
2022/09/13 12:36:06;;;;;;;;;;;29.10;87.30;;;;;;5073076;28;19951;-84
2022/09/13 12:38:32;;;;;;;;;;;29.10;87.50;;;;;;5076084;28;19916;-83
2022/09/13 12:41:16;;;;;;;;;;;29.00;87.90;;;;;;5079243;28;19916;-83
2022/09/13 12:44:00;;;;;;;;;;;29.00;89.00;;;;;;5063908;28;19912;-83
2022/09/13 12:46:34;;;;;;;;;;;28.90;89.40;;;;;;5057972;28;19924;-82
2022/09/13 12:49:09;;;;;;;;;;;28.90;88.90;;;;;;5082327;28;19982;-82
2022/09/13 12:51:53;;;;;;;;;;;29.00;88.80;;;;;;5076536;28;22054;-83
2022/09/13 12:54:24;;;;;;;;;;;29.30;88.70;;;;;;5063673;28;19924;-81
2022/09/13 12:56:50;;;;;;;;;;;29.60;88.00;;;;;;5056815;28;19916;-84
2022/09/13 12:59:24;;;;;;;;;;;29.80;85.70;;;;;;5067752;28;19931;-85
2022/09/13 13:01:50;;;;;;;;;;;29.90;85.10;;;;;;5072142;28;19931;-84
2022/09/13 13:04:27;;;;;;;;;;;30.10;85.10;;;;;;5084682;28;19961;-84
2022/09/13 13:06:53;;;;;;;;;;;30.30;85.90;;;;;;5084152;28;20026;-84
2022/09/13 13:09:18;;;;;;;;;;;30.30;85.00;;;;;;5048766;28;19999;-84
2022/09/13 13:11:45;;;;;;;;;;;30.10;85.30;;;;;;5054343;28;20033;-84
2022/09/13 13:14:27;;;;;;;;;;;30.10;85.10;;;;;;5064545;28;20684;-84
2022/09/13 13:16:53;;;;;;;;;;;30.00;85.60;;;;;;5065274;28;19924;-84
2022/09/13 13:19:27;;;;;;;;;;;30.00;85.00;;;;;;5052241;28;19916;-84
2022/09/13 13:21:54;;;;;;;;;;;30.00;85.10;;;;;;5058056;28;19959;-83
2022/09/13 13:24:20;;;;;;;;;;;30.00;86.30;;;;;;5033632;28;19924;-84
2022/09/13 13:26:52;;;;;;;;;;;30.10;87.20;;;;;;5048831;28;19924;-84
2022/09/13 13:29:36;;;;;;;;;;;30.30;84.60;;;;;;5052427;28;19920;-84
2022/09/13 13:32:02;;;;;;;;;;;30.20;84.20;;;;;;5075659;28;19945;-84
2022/09/13 13:34:31;;;;;;;;;;;29.90;84.60;;;;;;5062791;28;19916;-84
2022/09/13 13:36:59;;;;;;;;;;;29.80;84.20;;;;;;5055028;28;20449;-84
2022/09/13 13:39:24;;;;;;;;;;;29.70;85.80;;;;;;5061781;28;19927;-84
2022/09/13 13:41:54;;;;;;;;;;;29.80;85.10;;;;;;5066522;28;19917;-84
2022/09/13 13:44:19;;;;;;;;;;;29.90;86.30;;;;;;5063238;28;19963;-83
2022/09/13 13:46:46;;;;;;;;;;;30.00;85.30;;;;;;5043332;28;20030;-84
2022/09/13 13:49:29;;;;;;;;;;;30.30;86.00;;;;;;5063000;28;20075;-85
2022/09/13 13:52:07;;;;;;;;;;;30.50;86.40;;;;;;5078807;28;19912;-84
2022/09/13 13:54:46;;;;;;;;;;;30.60;86.40;;;;;;5063436;28;19956;-85
2022/09/13 13:57:30;;;;;;;;;;;30.50;89.30;;;;;;5063652;28;19912;-84
2022/09/13 13:59:59;;;;;;;;;;;30.60;89.00;;;;;;5062048;28;19928;-84
2022/09/13 14:02:29;;;;;;;;;;;30.70;83.90;;;;;;5043502;28;20410;-84
2022/09/13 14:05:14;;;;;;;;;;;30.80;88.00;;;;;;5043768;28;20270;-84
2022/09/13 14:07:45;;;;;;;;;;;30.80;87.10;;;;;;5042984;28;19932;-85
2022/09/13 14:10:40;;;;;;;;;;;30.60;88.40;;;;;;5043652;28;19912;-85
2022/09/13 14:13:07;;;;;;;;;;;30.40;85.50;;;;;;4981321;28;20302;-84
2022/09/13 14:15:47;;;;;;;;;;;30.30;85.60;;;;;;4981242;28;19917;-84
2022/09/13 14:18:31;;;;;;;;;;;30.00;84.30;;;;;;4997608;28;20008;-84
2022/09/13 14:21:01;;;;;;;;;;;29.40;83.40;;;;;;4982670;28;19952;-85
2022/09/13 14:23:26;;;;;;;;;;;28.10;80.30;;;;;;4981031;28;20002;-84
2022/09/13 14:25:53;;;;;;;;;;;27.30;81.30;;;;;;4981427;28;20220;-85
2022/09/13 14:28:20;;;;;;;;;;;27.20;79.50;;;;;;4984317;28;19913;-85
2022/09/13 14:30:46;;;;;;;;;;;26.60;80.00;;;;;;4985535;28;19914;-84
2022/09/13 14:33:25;;;;;;;;;;;26.40;80.90;;;;;;4985088;28;19988;-85